createdAt,value
2023-04-23T00:00:50.604Z,101151.88
2023-04-23T00:05:55.440Z,101124.13
2023-04-23T00:11:09.324Z,101137.72
2023-04-23T00:16:08.785Z,101141.22
2023-04-23T00:21:13.587Z,101164.13
2023-04-23T00:26:22.920Z,101165.88
2023-04-23T00:31:27.447Z,101148.31
2023-04-23T00:36:26.986Z,101173.09
2023-04-23T00:41:27.499Z,101144.66
2023-04-23T00:46:29.197Z,101164.63
2023-04-23T00:51:26.955Z,101176.25
2023-04-23T00:56:27.219Z,101158.53
2023-04-23T01:01:26.445Z,101141.03
2023-04-23T01:06:25.694Z,101139.69
2023-04-23T01:11:27.263Z,101134.56
2023-04-23T01:16:26.924Z,101142.56
2023-04-23T01:21:26.580Z,101147.06
2023-04-23T01:26:26.031Z,101141.56
2023-04-23T01:31:27.902Z,101154.09
2023-04-23T01:36:28.185Z,101139.03
2023-04-23T01:41:37.402Z,101153.09
2023-04-23T01:46:39.122Z,101133.31
2023-04-23T01:51:37.621Z,101143.91
2023-04-23T01:56:37.910Z,101154.53
2023-04-23T02:01:46.936Z,101168.06
2023-04-23T02:06:47.601Z,101134.97
2023-04-23T02:11:46.750Z,101152.84
2023-04-23T02:16:45.632Z,101144.81
2023-04-23T02:21:45.361Z,101152.47
2023-04-23T02:26:44.782Z,101183.94
2023-04-23T02:31:46.352Z,101159.44
2023-04-23T02:36:45.925Z,101154.94
2023-04-23T02:41:44.222Z,101157.13
2023-04-23T02:46:46.685Z,101146.41
2023-04-23T02:51:47.308Z,101153.41
2023-04-23T02:56:49.310Z,101154.94
2023-04-23T03:01:47.716Z,101156.88
2023-04-23T03:06:48.087Z,101181.69
2023-04-23T03:11:54.210Z,101174.84
2023-04-23T03:16:53.972Z,101181.91
2023-04-23T03:21:55.041Z,101176.22
2023-04-23T03:26:55.156Z,101179.75
2023-04-23T03:31:56.168Z,101211.91
2023-04-23T03:36:55.835Z,101189.88
2023-04-23T03:42:03.004Z,101214.84
2023-04-23T03:47:04.069Z,101192.13
2023-04-23T03:52:04.550Z,101195.91
2023-04-23T03:57:05.856Z,101204.16
2023-04-23T04:02:15.313Z,101224.78
2023-04-23T04:07:16.332Z,101222.81
2023-04-23T04:12:17.768Z,101211.47
2023-04-23T04:17:18.166Z,101218.91
2023-04-23T04:22:20.141Z,101231.09
2023-04-23T04:27:19.431Z,101225.28
2023-04-23T04:32:18.201Z,101244.13
2023-04-23T04:37:23.248Z,101226.78
2023-04-23T04:42:25.900Z,101239.72
2023-04-23T04:47:24.607Z,101263.44
2023-04-23T04:52:22.843Z,101235.88
2023-04-23T04:57:23.019Z,101250.81
2023-04-23T05:02:23.655Z,101247.63
2023-04-23T05:07:24.734Z,101242.22
2023-04-23T05:12:33.893Z,101255.97
2023-04-23T05:17:35.564Z,101249.97
2023-04-23T05:22:36.056Z,101242.44
2023-04-23T05:27:39.874Z,101237.75
2023-04-23T05:32:41.215Z,101238.31
2023-04-23T05:37:39.277Z,101223.59
2023-04-23T05:42:38.595Z,101263.75
2023-04-23T05:47:37.574Z,101243.63
2023-04-23T05:52:37.800Z,101260.81
2023-04-23T05:57:39.598Z,101237.91
2023-04-23T06:02:42.749Z,101236.91
2023-04-23T06:07:42.220Z,101241.53
2023-04-23T06:12:42.341Z,101234.97
2023-04-23T06:17:44.969Z,101245.63
2023-04-23T06:22:42.867Z,101238.72
2023-04-23T06:27:40.879Z,101242.63
2023-04-23T06:32:47.553Z,101258.97
2023-04-23T06:37:45.147Z,101232.63
2023-04-23T06:42:45.663Z,101237.22
2023-04-23T06:48:04.194Z,101235.25
2023-04-23T06:53:12.726Z,101245.38
2023-04-23T06:58:16.593Z,101258.09
2023-04-23T07:03:17.627Z,101258.53
2023-04-23T07:08:16.643Z,101230.53
2023-04-23T07:13:16.033Z,101228.03
2023-04-23T07:18:23.341Z,101236.13
2023-04-23T07:23:22.765Z,101225.22
2023-04-23T07:28:20.323Z,101218.16
2023-04-23T07:33:19.371Z,101235.84
2023-04-23T07:38:17.966Z,101230.16
2023-04-23T07:43:17.047Z,101225.22
2023-04-23T07:48:19.384Z,101206.28
2023-04-23T07:53:30.800Z,101228.72
2023-04-23T07:58:30.348Z,101215.44
2023-04-23T08:03:29.396Z,101227.09
2023-04-23T08:08:28.285Z,101207.53
2023-04-23T08:13:26.639Z,101189.41
2023-04-23T08:18:27.962Z,101216.13
2023-04-23T08:23:30.596Z,101220.28
2023-04-23T08:28:35.009Z,101214.38
2023-04-23T08:33:34.045Z,101204.38
2023-04-23T08:38:32.592Z,101197.28
2023-04-23T08:43:45.131Z,101199.41
2023-04-23T08:48:47.624Z,101217.69
2023-04-23T08:53:46.936Z,101199.19
2023-04-23T08:58:50.714Z,101213.25
2023-04-23T09:03:49.932Z,101211.22
2023-04-23T09:08:48.712Z,101174.47
2023-04-23T09:13:52.784Z,101186.25
2023-04-23T09:19:03.307Z,101185.22
2023-04-23T09:29:38.468Z,101201.25
2023-04-23T09:34:38.463Z,101168.78
2023-04-23T09:39:37.303Z,101186.22
2023-04-23T09:44:38.256Z,101189.84
2023-04-23T09:49:50.047Z,101160.81
2023-04-23T09:54:51.064Z,101169.81
2023-04-23T09:59:57.380Z,101144.66
2023-04-23T10:10:23.046Z,101140.19
2023-04-23T10:15:31.830Z,101140.69
2023-04-23T10:20:49.577Z,101148.00
2023-04-23T10:25:50.036Z,101105.22
2023-04-23T10:37:37.473Z,101144.22
2023-04-23T10:43:01.443Z,101096.63
2023-04-23T10:48:00.973Z,101122.34
2023-04-23T10:53:52.746Z,101120.78
2023-04-23T10:58:57.740Z,101109.66
2023-04-23T11:03:57.061Z,101079.13
2023-04-23T11:08:56.944Z,101105.03
2023-04-23T11:13:55.611Z,101081.16
2023-04-23T11:19:20.791Z,101093.19
2023-04-23T11:24:34.474Z,101058.06
2023-04-23T11:29:43.045Z,101059.41
2023-04-23T11:34:53.306Z,101090.09
2023-04-23T11:39:51.838Z,101079.78
2023-04-23T11:45:02.650Z,101088.53
2023-04-23T11:50:02.218Z,101056.78
2023-04-23T11:55:06.694Z,101058.19
2023-04-23T12:00:15.664Z,101070.72
2023-04-23T12:05:20.292Z,101049.31
2023-04-23T12:10:25.390Z,101045.88
2023-04-23T12:15:23.596Z,101042.38
2023-04-23T12:20:23.914Z,101007.13
2023-04-23T12:25:25.115Z,101036.53
2023-04-23T12:30:24.229Z,100994.19
2023-04-23T12:35:45.121Z,100992.31
2023-04-23T12:40:49.185Z,100985.13
2023-04-23T12:45:53.141Z,100974.56
2023-04-23T12:50:52.261Z,101001.22
2023-04-23T12:55:50.432Z,100976.13
2023-04-23T13:00:51.765Z,100982.66
2023-04-23T13:05:52.063Z,100967.16
2023-04-23T13:10:54.010Z,100971.34
2023-04-23T13:16:03.823Z,100983.00
2023-04-23T13:21:05.150Z,100951.56
2023-04-23T13:26:09.353Z,100984.75
2023-04-23T13:31:21.434Z,100981.78
2023-04-23T13:36:24.498Z,100937.28
2023-04-23T13:41:24.006Z,100971.25
2023-04-23T13:46:42.661Z,100931.69
2023-04-23T13:51:54.470Z,100929.41
2023-04-23T13:56:56.652Z,100959.66
2023-04-23T14:02:05.157Z,100937.94
2023-04-23T14:07:19.942Z,100936.50
2023-04-23T14:12:20.223Z,100939.72
2023-04-23T14:17:24.069Z,100931.16
2023-04-23T14:22:24.509Z,100937.28
2023-04-23T14:27:24.135Z,100928.19
2023-04-23T14:32:23.976Z,100920.97
2023-04-23T14:37:24.064Z,100918.19
2023-04-23T14:42:24.687Z,100930.81
2023-04-23T14:47:27.440Z,100908.13
2023-04-23T14:52:28.995Z,100901.22
2023-04-23T14:57:29.313Z,100939.53
2023-04-23T15:02:30.686Z,100903.53
2023-04-23T15:07:34.279Z,100913.41
2023-04-23T15:12:53.362Z,100933.53
2023-04-23T15:17:52.941Z,100914.53
2023-04-23T15:23:05.926Z,100938.81
2023-04-23T15:28:05.816Z,100908.06
2023-04-23T15:33:05.184Z,100922.28
2023-04-23T15:38:18.962Z,100905.22
2023-04-23T15:43:19.490Z,100928.91
2023-04-23T15:48:21.940Z,100898.03
2023-04-23T15:53:23.159Z,100910.94
2023-04-23T15:58:25.869Z,100887.97
2023-04-23T16:03:25.915Z,100919.81
2023-04-23T16:08:25.956Z,100884.00
2023-04-23T16:13:29.083Z,100892.34
2023-04-23T16:18:28.916Z,100909.78
2023-04-23T16:23:27.986Z,100883.78
2023-04-23T16:28:27.195Z,100894.56
2023-04-23T16:33:28.862Z,100901.81
2023-04-23T16:38:28.158Z,100908.22
2023-04-23T16:43:27.649Z,100886.00
2023-04-23T16:48:26.388Z,100903.41
2023-04-23T16:53:30.023Z,100884.34
2023-04-23T16:58:33.280Z,100919.97
2023-04-23T17:03:33.956Z,100931.91
2023-04-23T17:08:37.053Z,100920.66
2023-04-23T17:13:36.495Z,100889.00
2023-04-23T17:18:39.170Z,100910.97
2023-04-23T17:23:38.985Z,100898.63
2023-04-23T17:28:43.357Z,100890.31
2023-04-23T17:33:49.782Z,100926.78
2023-04-23T17:38:51.885Z,100921.44
2023-04-23T17:44:02.934Z,100930.84
2023-04-23T17:49:07.964Z,100912.44
2023-04-23T17:54:21.089Z,100968.03
2023-04-23T18:05:10.380Z,100931.84
2023-04-23T18:10:09.322Z,100977.88
2023-04-23T18:15:19.793Z,100933.66
2023-04-23T18:20:29.536Z,100923.72
2023-04-23T18:25:37.036Z,100977.09
2023-04-23T18:30:36.408Z,100981.53
2023-04-23T18:35:43.230Z,100920.63
2023-04-23T18:40:42.184Z,100950.22
2023-04-23T18:45:41.827Z,100972.34
2023-04-23T18:50:51.133Z,100981.69
2023-04-23T18:55:51.506Z,100964.19
2023-04-23T19:00:50.293Z,100943.13
2023-04-23T19:05:50.776Z,100979.22
2023-04-23T19:10:52.106Z,100975.19
2023-04-23T19:15:53.970Z,100946.72
2023-04-23T19:21:04.662Z,100934.97
2023-04-23T19:26:15.970Z,100985.03
2023-04-23T19:32:01.573Z,100967.31
2023-04-23T19:37:19.413Z,100952.13
2023-04-23T19:42:42.784Z,100935.44
2023-04-23T19:53:14.513Z,100966.38
2023-04-23T19:58:16.124Z,100944.56
2023-04-23T20:03:15.871Z,100934.00
2023-04-23T20:08:29.332Z,100936.00
2023-04-23T20:13:29.431Z,100920.75
2023-04-23T20:18:32.546Z,100924.75
2023-04-23T20:23:36.372Z,100900.13
2023-04-23T20:28:34.784Z,100904.28
2023-04-23T20:33:36.186Z,100883.44
2023-04-23T20:38:38.260Z,100873.31
2023-04-23T20:43:40.026Z,100881.41
2023-04-23T20:49:09.107Z,100936.84
2023-04-23T20:54:08.146Z,100908.31
2023-04-23T20:59:06.404Z,100911.91
2023-04-23T21:04:13.858Z,100928.50
2023-04-23T21:09:13.195Z,100905.81
2023-04-23T21:14:11.537Z,100908.31
2023-04-23T21:19:10.321Z,100946.72
2023-04-23T21:24:10.976Z,100925.16
2023-04-23T21:29:10.967Z,100936.72
2023-04-23T21:34:10.701Z,100876.19
2023-04-23T21:39:13.224Z,100879.53
2023-04-23T21:44:13.943Z,100894.28
2023-04-23T21:49:13.453Z,100901.69
2023-04-23T21:54:12.253Z,100902.84
2023-04-23T21:59:19.573Z,100869.16
2023-04-23T22:04:22.559Z,100898.81
2023-04-23T22:09:22.735Z,100899.38
2023-04-23T22:14:21.734Z,100915.75
2023-04-23T22:19:21.566Z,100900.34
2023-04-23T22:24:23.306Z,100885.13
2023-04-23T22:29:22.297Z,100889.03
2023-04-23T22:34:21.754Z,100935.97
2023-04-23T22:39:21.547Z,100892.47
2023-04-23T22:44:26.774Z,100887.28
2023-04-23T22:49:27.105Z,100866.59
2023-04-23T22:54:35.374Z,100864.34
2023-04-23T22:59:40.241Z,100891.06
2023-04-23T23:04:39.666Z,100892.84
2023-04-23T23:09:41.566Z,100864.88
2023-04-23T23:14:40.981Z,100899.84
2023-04-23T23:19:39.649Z,100886.03
2023-04-23T23:24:42.130Z,100873.41
2023-04-23T23:29:43.311Z,100860.06
2023-04-23T23:34:42.091Z,100871.19
2023-04-23T23:39:41.918Z,100845.03
2023-04-23T23:44:39.831Z,100876.38
2023-04-23T23:49:42.819Z,100892.13
2023-04-23T23:54:44.710Z,100852.97
2023-04-23T23:59:43.211Z,100831.31
